Time;durP1;ratioP1;P1;durP2;ratioP2;P2;SDS_P1;SDS_P2;PMS_P1;PMS_P2;Temp;Humidity;BMP_temperature;BMP_pressure;BME280_temperature;BME280_humidity;BME280_pressure;Samples;Min_cycle;Max_cycle;Signal;HPM_P1;HPM_P2
2021/10/28 00:13:39;;;;;;;15.67;14.10;;;4.70;99.90;;;;;;5107264;28;20245;-76
2021/10/28 00:16:13;;;;;;;19.83;17.93;;;4.70;99.90;;;;;;5110576;28;20225;-77
2021/10/28 00:18:44;;;;;;;15.97;14.37;;;4.70;99.90;;;;;;5106113;28;20258;-77
2021/10/28 00:21:11;;;;;;;19.93;15.97;;;4.60;99.90;;;;;;5107826;28;20197;-77
2021/10/28 00:23:43;;;;;;;17.00;14.47;;;4.60;99.90;;;;;;5110558;28;20185;-77
2021/10/28 00:26:12;;;;;;;14.23;11.93;;;4.50;99.90;;;;;;5107433;28;20266;-77
2021/10/28 00:28:40;;;;;;;16.00;14.30;;;4.50;99.90;;;;;;5109024;28;20212;-77
2021/10/28 00:31:09;;;;;;;13.87;12.37;;;4.50;99.90;;;;;;5108405;28;20192;-77
2021/10/28 00:33:37;;;;;;;15.63;14.07;;;4.50;99.90;;;;;;5110342;28;20259;-77
2021/10/28 00:36:07;;;;;;;14.73;11.90;;;4.50;99.90;;;;;;5102862;28;20201;-77
2021/10/28 00:38:34;;;;;;;13.80;12.40;;;4.40;99.90;;;;;;5110079;28;20308;-77
2021/10/28 00:41:03;;;;;;;14.20;12.77;;;4.40;99.90;;;;;;5104713;28;20205;-75
2021/10/28 00:43:31;;;;;;;13.77;12.23;;;4.40;99.90;;;;;;5109750;28;20197;-77
2021/10/28 00:45:58;;;;;;;19.57;17.77;;;4.40;99.90;;;;;;5109130;28;20197;-77
2021/10/28 00:48:25;;;;;;;21.20;19.40;;;4.40;99.90;;;;;;5103760;28;20243;-77
2021/10/28 00:50:54;;;;;;;20.13;18.53;;;4.30;99.90;;;;;;5113085;27;20193;-77
2021/10/28 00:53:23;;;;;;;22.43;20.43;;;4.30;99.90;;;;;;5102571;28;20206;-78
2021/10/28 00:55:52;;;;;;;21.93;20.13;;;4.20;99.90;;;;;;5104024;28;20212;-77
2021/10/28 00:58:22;;;;;;;20.80;19.20;;;4.20;99.90;;;;;;5101939;28;20198;-77
2021/10/28 01:00:51;;;;;;;21.67;19.70;;;4.10;99.90;;;;;;5112289;28;20197;-77
2021/10/28 01:03:18;;;;;;;20.43;18.83;;;4.10;99.90;;;;;;5104904;28;20696;-77
2021/10/28 01:05:45;;;;;;;19.97;18.37;;;4.10;99.90;;;;;;5105053;28;20511;-77
2021/10/28 01:08:16;;;;;;;20.60;18.90;;;4.10;99.90;;;;;;5113136;28;20607;-77
2021/10/28 01:10:46;;;;;;;20.13;18.53;;;4.10;99.90;;;;;;5108843;28;20258;-77
2021/10/28 01:13:14;;;;;;;20.93;19.07;;;4.10;99.90;;;;;;5113232;28;20851;-77
2021/10/28 01:15:41;;;;;;;21.07;19.27;;;4.00;99.90;;;;;;5111877;28;20197;-77
2021/10/28 01:18:09;;;;;;;21.73;20.03;;;4.00;99.90;;;;;;5112871;28;20193;-77
2021/10/28 01:20:39;;;;;;;21.10;19.27;;;4.00;99.90;;;;;;5104830;28;20201;-77
2021/10/28 01:23:06;;;;;;;21.90;19.90;;;4.00;99.90;;;;;;5107931;28;20688;-76
2021/10/28 01:25:33;;;;;;;22.10;20.03;;;4.00;99.90;;;;;;5112865;28;20246;-77
2021/10/28 01:28:00;;;;;;;21.80;19.90;;;3.90;99.90;;;;;;5107701;28;20218;-77
2021/10/28 01:30:28;;;;;;;21.33;19.53;;;3.90;99.90;;;;;;5106901;28;20311;-77
2021/10/28 01:32:55;;;;;;;20.53;18.93;;;3.90;99.90;;;;;;5105974;28;20693;-77
2021/10/28 01:35:22;;;;;;;20.97;19.17;;;3.80;99.90;;;;;;5112888;28;20205;-77
2021/10/28 01:37:51;;;;;;;21.40;19.60;;;3.80;99.90;;;;;;5111081;28;20193;-77
2021/10/28 01:40:18;;;;;;;21.33;19.37;;;3.70;99.90;;;;;;5108306;28;20537;-75
2021/10/28 01:42:49;;;;;;;20.57;18.93;;;3.70;99.90;;;;;;5105556;28;20561;-77
2021/10/28 01:45:16;;;;;;;20.60;18.80;;;3.70;99.90;;;;;;5108429;28;20216;-77
2021/10/28 01:47:43;;;;;;;21.23;19.33;;;3.70;99.90;;;;;;5102921;28;20299;-76
2021/10/28 01:50:11;;;;;;;20.40;18.70;;;3.70;99.90;;;;;;5112529;28;20492;-77
2021/10/28 01:52:40;;;;;;;20.07;18.47;;;3.70;99.90;;;;;;5112463;28;20493;-78
2021/10/28 01:55:10;;;;;;;20.23;18.73;;;3.60;99.90;;;;;;5108234;28;20197;-77
2021/10/28 01:57:38;;;;;;;19.07;17.67;;;3.60;99.90;;;;;;5111974;28;20189;-77
2021/10/28 02:00:13;;;;;;;18.00;16.80;;;3.50;99.90;;;;;;5110513;28;20301;-76
2021/10/28 02:02:41;;;;;;;19.07;17.47;;;3.50;99.90;;;;;;5111188;28;20270;-77
2021/10/28 02:05:10;;;;;;;18.53;17.03;;;3.40;99.90;;;;;;5111113;28;20198;-77
2021/10/28 02:07:37;;;;;;;19.63;18.17;;;3.30;99.90;;;;;;5106735;28;20281;-77
2021/10/28 02:10:06;;;;;;;19.33;17.90;;;3.40;99.90;;;;;;5104649;28;20221;-76
2021/10/28 02:12:35;;;;;;;19.73;18.10;;;3.30;99.90;;;;;;5108619;28;20218;-77
2021/10/28 02:15:02;;;;;;;18.60;17.20;;;3.30;99.90;;;;;;5112173;28;20189;-77
2021/10/28 02:17:29;;;;;;;18.47;17.03;;;3.30;99.90;;;;;;5108371;28;20609;-76
2021/10/28 02:19:56;;;;;;;19.47;18.03;;;3.30;99.90;;;;;;5111823;28;20511;-77
2021/10/28 02:22:23;;;;;;;19.20;17.80;;;3.20;99.90;;;;;;5112186;28;20673;-77
2021/10/28 02:24:49;;;;;;;18.43;17.03;;;3.20;99.90;;;;;;5112277;28;20427;-77
2021/10/28 02:27:16;;;;;;;19.73;18.13;;;3.20;99.90;;;;;;5112087;28;20193;-77
2021/10/28 02:29:44;;;;;;;18.87;17.47;;;3.10;99.90;;;;;;5110272;28;20278;-77
2021/10/28 02:32:12;;;;;;;17.77;16.33;;;3.10;99.90;;;;;;5106396;28;20439;-76
2021/10/28 02:34:40;;;;;;;18.03;16.77;;;3.10;99.90;;;;;;5111837;28;20974;-77
2021/10/28 02:37:07;;;;;;;17.53;16.33;;;3.10;99.90;;;;;;5111922;28;20185;-77
2021/10/28 02:39:34;;;;;;;17.23;16.00;;;3.00;99.90;;;;;;5106023;28;20901;-76
2021/10/28 02:42:02;;;;;;;17.27;16.10;;;2.90;99.90;;;;;;5110689;28;20439;-77
2021/10/28 02:44:29;;;;;;;17.67;16.20;;;2.90;99.90;;;;;;5102225;28;20533;-76
2021/10/28 02:46:58;;;;;;;17.37;16.17;;;2.90;99.90;;;;;;5104302;28;20216;-76
2021/10/28 02:49:25;;;;;;;17.80;16.50;;;2.80;99.90;;;;;;5111974;28;20449;-75
2021/10/28 02:51:52;;;;;;;18.03;16.77;;;2.80;99.90;;;;;;5106508;28;20545;-76
2021/10/28 02:54:23;;;;;;;17.80;16.60;;;2.80;99.90;;;;;;5111964;28;20466;-76
2021/10/28 02:56:50;;;;;;;18.60;17.10;;;2.80;99.90;;;;;;5111939;28;20657;-76
2021/10/28 02:59:18;;;;;;;17.60;16.33;;;2.80;99.90;;;;;;5094575;28;20872;-76
2021/10/28 03:01:47;;;;;;;18.23;16.80;;;2.80;99.90;;;;;;5093115;28;20209;-75
2021/10/28 03:04:17;;;;;;;16.97;15.77;;;2.80;99.90;;;;;;5092233;28;20461;-76
2021/10/28 03:06:45;;;;;;;17.30;16.10;;;2.80;99.90;;;;;;5093163;28;20209;-75
2021/10/28 03:09:13;;;;;;;17.30;16.17;;;2.90;99.90;;;;;;5090869;28;20752;-75
2021/10/28 03:11:42;;;;;;;18.27;16.97;;;2.90;99.90;;;;;;5093715;28;20198;-75
2021/10/28 03:14:11;;;;;;;17.07;15.97;;;2.80;99.90;;;;;;5095047;28;20576;-75
2021/10/28 03:16:46;;;;;;;17.73;16.63;;;2.80;99.90;;;;;;5105474;28;20198;-75
2021/10/28 03:19:29;;;;;;;17.70;16.50;;;2.80;99.90;;;;;;5110210;28;20213;-75
2021/10/28 03:27:28;;;;;;;17.00;15.83;;;2.90;99.90;;;;;;5108793;28;20271;-76
2021/10/28 03:29:56;;;;;;;18.43;17.13;;;2.90;99.90;;;;;;5096523;28;20463;-76
2021/10/28 03:32:23;;;;;;;18.30;17.00;;;2.90;99.90;;;;;;5096550;28;20543;-76
2021/10/28 03:34:52;;;;;;;19.70;18.20;;;3.00;99.90;;;;;;5105301;28;20470;-75
2021/10/28 03:37:22;;;;;;;18.70;17.40;;;3.20;99.90;;;;;;5115177;28;20304;-76
2021/10/28 04:00:05;;;;;;;21.70;20.20;;;3.60;99.90;;;;;;5110318;28;20258;-77
2021/10/28 04:19:34;;;;;;;22.07;20.57;;;3.80;99.90;;;;;;5042791;28;20211;-77
2021/10/28 04:30:14;;;;;;;20.87;19.43;;;3.80;99.90;;;;;;5112591;28;20265;-77
2021/10/28 04:32:41;;;;;;;21.30;19.70;;;3.80;99.90;;;;;;5109894;28;20198;-77
2021/10/28 04:35:09;;;;;;;20.53;19.13;;;3.80;99.90;;;;;;5109269;28;20217;-77
2021/10/28 04:37:38;;;;;;;20.63;19.23;;;3.80;99.90;;;;;;5112115;28;20189;-77
2021/10/28 04:40:08;;;;;;;20.87;19.37;;;3.80;99.90;;;;;;5112204;28;20201;-77
2021/10/28 04:42:35;;;;;;;21.63;20.10;;;3.70;99.90;;;;;;5111813;28;20197;-77
2021/10/28 04:45:02;;;;;;;21.90;20.10;;;3.60;99.90;;;;;;5113835;28;20716;-77
2021/10/28 04:47:29;;;;;;;21.40;19.70;;;3.70;99.90;;;;;;5113687;28;20198;-77
2021/10/28 04:49:56;;;;;;;20.80;19.30;;;3.70;99.90;;;;;;5113424;28;20768;-76
2021/10/28 04:52:23;;;;;;;20.53;19.03;;;3.70;99.90;;;;;;5108276;28;20677;-77
2021/10/28 04:54:50;;;;;;;21.70;20.07;;;3.70;99.90;;;;;;5111543;28;20216;-77
2021/10/28 04:57:19;;;;;;;20.67;19.27;;;3.70;99.90;;;;;;5112419;28;20231;-77
2021/10/28 04:59:45;;;;;;;21.53;19.97;;;3.70;99.90;;;;;;5111956;28;20467;-77
2021/10/28 05:02:12;;;;;;;20.80;19.10;;;3.60;99.90;;;;;;5112250;28;20500;-77
2021/10/28 05:04:39;;;;;;;20.73;19.23;;;3.60;99.90;;;;;;5112137;28;20201;-77
2021/10/28 05:07:06;;;;;;;20.13;18.73;;;3.60;99.90;;;;;;5112029;28;20280;-77
2021/10/28 05:09:33;;;;;;;20.70;19.10;;;3.60;99.90;;;;;;5111506;28;20488;-77
2021/10/28 05:12:01;;;;;;;19.70;18.30;;;3.70;99.90;;;;;;5113318;27;20492;-77
2021/10/28 05:14:29;;;;;;;20.97;19.33;;;3.70;99.90;;;;;;5111800;28;20595;-76
2021/10/28 05:16:58;;;;;;;20.33;18.77;;;3.70;99.90;;;;;;5113190;28;20243;-77
2021/10/28 05:19:26;;;;;;;20.63;19.03;;;3.60;99.90;;;;;;5111392;28;20221;-77
2021/10/28 05:21:53;;;;;;;20.63;19.17;;;3.60;99.90;;;;;;5107674;28;20285;-77
2021/10/28 05:24:19;;;;;;;22.33;20.20;;;3.70;99.90;;;;;;5111859;28;20189;-77
2021/10/28 05:26:46;;;;;;;20.30;18.90;;;3.70;99.90;;;;;;5112836;28;20492;-77
2021/10/28 05:29:13;;;;;;;21.03;19.17;;;3.60;99.90;;;;;;5112558;28;20535;-77
2021/10/28 05:31:41;;;;;;;20.20;18.80;;;3.50;99.90;;;;;;5112753;28;20193;-77
2021/10/28 05:34:08;;;;;;;19.73;18.43;;;3.50;99.90;;;;;;5112351;28;20986;-76
2021/10/28 05:36:35;;;;;;;19.90;18.60;;;3.40;99.90;;;;;;5110792;28;20450;-77
2021/10/28 05:39:02;;;;;;;19.63;18.30;;;3.40;99.90;;;;;;5112449;28;20455;-77
2021/10/28 05:41:29;;;;;;;20.73;18.93;;;3.40;99.90;;;;;;5108137;28;20727;-77
2021/10/28 05:43:56;;;;;;;20.53;19.03;;;3.50;99.90;;;;;;5104530;28;20207;-77
2021/10/28 05:46:23;;;;;;;20.03;18.67;;;3.50;99.90;;;;;;5103964;28;20205;-77
2021/10/28 05:48:51;;;;;;;20.87;19.37;;;3.50;99.90;;;;;;5102358;28;20876;-77
2021/10/28 05:51:18;;;;;;;21.47;19.97;;;3.50;99.90;;;;;;5110998;28;20455;-77
2021/10/28 05:53:46;;;;;;;20.77;19.27;;;3.60;99.90;;;;;;5112251;28;21019;-77
2021/10/28 05:56:14;;;;;;;20.17;18.87;;;3.60;99.90;;;;;;5112300;28;20459;-77
2021/10/28 05:58:40;;;;;;;20.67;19.27;;;3.60;99.90;;;;;;5111089;28;20554;-77
2021/10/28 06:01:07;;;;;;;20.57;19.17;;;3.60;99.90;;;;;;5110044;28;20496;-77
2021/10/28 06:03:36;;;;;;;21.53;20.03;;;3.50;99.90;;;;;;5110945;28;20193;-77
2021/10/28 06:06:04;;;;;;;19.63;18.27;;;3.50;99.90;;;;;;5112545;28;20430;-77
2021/10/28 06:08:31;;;;;;;21.20;19.70;;;3.50;99.90;;;;;;5111893;28;20520;-77
2021/10/28 06:10:59;;;;;;;21.53;20.00;;;3.40;99.90;;;;;;5112201;28;20522;-77
2021/10/28 06:13:28;;;;;;;20.00;18.63;;;3.40;99.90;;;;;;5112149;28;20194;-77
2021/10/28 06:15:55;;;;;;;20.63;19.20;;;3.40;99.90;;;;;;5106785;28;20435;-77
2021/10/28 06:18:37;;;;;;;20.10;18.80;;;3.50;99.90;;;;;;5110898;28;20443;-77
2021/10/28 06:21:06;;;;;;;20.20;18.80;;;3.40;99.90;;;;;;5104182;28;20458;-77
2021/10/28 06:23:33;;;;;;;20.80;19.40;;;3.40;99.90;;;;;;5107761;28;20447;-77
2021/10/28 06:26:00;;;;;;;21.00;19.33;;;3.40;99.90;;;;;;5105744;28;20976;-77
2021/10/28 06:28:27;;;;;;;20.63;19.23;;;3.40;99.90;;;;;;5103970;28;20464;-77
2021/10/28 06:30:54;;;;;;;20.47;19.07;;;3.40;99.90;;;;;;5107847;28;20434;-77
2021/10/28 06:33:23;;;;;;;20.93;19.43;;;3.40;99.90;;;;;;5110698;28;20801;-77
2021/10/28 06:35:49;;;;;;;21.50;19.90;;;3.40;99.90;;;;;;5113787;28;20522;-77
2021/10/28 06:38:18;;;;;;;20.20;18.90;;;3.50;99.90;;;;;;5106935;28;20526;-77
2021/10/28 06:40:45;;;;;;;20.70;19.30;;;3.50;99.90;;;;;;5111815;28;20289;-77
2021/10/28 06:43:11;;;;;;;20.67;19.17;;;3.50;99.90;;;;;;5107728;28;20492;-77
2021/10/28 06:45:38;;;;;;;20.20;18.87;;;3.50;99.90;;;;;;5112304;28;20439;-77
2021/10/28 06:48:06;;;;;;;19.40;18.10;;;3.50;99.90;;;;;;5115866;28;20520;-76
2021/10/28 06:50:40;;;;;;;19.63;18.33;;;3.60;99.90;;;;;;5116772;28;20447;-76
2021/10/28 06:53:11;;;;;;;19.30;18.00;;;3.70;99.90;;;;;;5111959;28;20279;-76
2021/10/28 06:55:46;;;;;;;20.10;18.70;;;3.70;99.90;;;;;;5115707;28;20967;-77
2021/10/28 07:03:42;;;;;;;19.83;18.50;;;3.80;99.90;;;;;;5113436;28;20281;-76
2021/10/28 07:06:11;;;;;;;18.60;17.40;;;3.90;99.90;;;;;;5113780;28;20431;-77
2021/10/28 07:08:41;;;;;;;19.27;17.97;;;4.00;99.90;;;;;;5112579;28;20483;-77
2021/10/28 07:11:13;;;;;;;18.67;17.43;;;3.90;99.90;;;;;;5109899;28;20431;-77
2021/10/28 07:13:43;;;;;;;19.67;18.37;;;4.00;99.90;;;;;;5115648;28;20181;-77
2021/10/28 07:16:18;;;;;;;19.40;18.10;;;4.10;99.90;;;;;;5110523;28;20197;-77
2021/10/28 07:21:52;;;;;;;18.43;17.23;;;4.10;99.90;;;;;;5103241;28;20189;-77
2021/10/28 07:24:34;;;;;;;17.73;16.60;;;4.20;99.90;;;;;;5111123;28;20197;-77
2021/10/28 07:27:20;;;;;;;18.27;17.17;;;4.30;99.90;;;;;;5108507;28;20189;-77
2021/10/28 07:30:10;;;;;;;17.97;16.77;;;4.50;99.90;;;;;;5114685;28;20225;-77
2021/10/28 07:33:04;;;;;;;17.87;16.67;;;4.70;99.90;;;;;;5115105;28;20273;-77
2021/10/28 07:38:35;;;;;;;17.43;16.23;;;5.10;99.90;;;;;;5110126;28;20189;-77
2021/10/28 07:57:46;;;;;;;13.60;12.60;;;5.80;99.90;;;;;;5114002;28;20189;-77
2021/10/28 08:00:29;;;;;;;15.33;14.33;;;5.80;99.90;;;;;;5110732;28;20711;-77
2021/10/28 08:19:44;;;;;;;6.63;5.90;;;5.80;99.90;;;;;;5091043;28;20221;-77
2021/10/28 08:22:17;;;;;;;7.67;6.87;;;5.90;99.90;;;;;;5092551;28;20203;-77
2021/10/28 08:30:15;;;;;;;7.97;7.10;;;6.10;99.90;;;;;;5094905;28;20581;-77
2021/10/28 08:32:43;;;;;;;8.43;7.53;;;6.40;99.90;;;;;;5092522;28;20634;-77
2021/10/28 08:35:10;;;;;;;10.40;9.40;;;6.50;99.90;;;;;;5097926;28;20202;-77
2021/10/28 08:37:43;;;;;;;13.57;12.47;;;6.60;99.90;;;;;;5091380;28;20203;-77
2021/10/28 08:40:11;;;;;;;8.00;7.20;;;6.60;99.90;;;;;;5095528;28;20223;-77
2021/10/28 08:42:39;;;;;;;13.03;12.13;;;6.80;99.90;;;;;;5094337;28;20215;-77
2021/10/28 08:45:07;;;;;;;15.17;13.90;;;7.10;99.90;;;;;;5092136;28;20215;-77
2021/10/28 08:47:34;;;;;;;14.93;13.73;;;7.60;99.90;;;;;;5096259;28;20199;-77
2021/10/28 08:50:06;;;;;;;17.97;16.77;;;8.10;99.90;;;;;;5095318;28;20613;-77
2021/10/28 08:52:45;;;;;;;12.87;11.80;;;8.50;99.90;;;;;;5099355;28;20208;-77
2021/10/28 08:55:27;;;;;;;14.67;13.57;;;9.00;99.90;;;;;;5096394;28;20249;-77
2021/10/28 09:26:28;;;;;;;16.90;15.50;;;10.80;99.90;;;;;;5088663;28;20194;-77
2021/10/28 09:29:07;;;;;;;12.67;11.47;;;10.70;99.90;;;;;;5074585;28;20210;-77
2021/10/28 09:31:37;;;;;;;12.10;11.00;;;10.70;99.90;;;;;;5083188;28;20190;-77
2021/10/28 09:34:16;;;;;;;17.63;16.13;;;10.80;99.90;;;;;;5077470;28;20199;-80
2021/10/28 09:48:35;;;;;;;18.67;17.27;;;11.10;99.90;;;;;;5073484;28;20237;-78
2021/10/28 09:51:05;;;;;;;14.10;12.80;;;11.10;99.90;;;;;;5070992;28;20230;-77
2021/10/28 09:53:58;;;;;;;12.33;10.77;;;11.10;99.90;;;;;;5073140;28;20199;-77
2021/10/28 09:59:23;;;;;;;16.00;14.40;;;11.10;99.90;;;;;;5071696;28;20213;-78
2021/10/28 10:01:57;;;;;;;17.23;15.73;;;11.00;99.90;;;;;;5070529;28;20207;-77
2021/10/28 10:04:25;;;;;;;16.83;15.33;;;11.00;99.90;;;;;;5072958;28;20669;-78
2021/10/28 10:06:53;;;;;;;15.33;13.83;;;11.00;99.90;;;;;;5073291;28;20191;-77
2021/10/28 10:09:20;;;;;;;12.77;11.37;;;11.10;99.90;;;;;;5075995;28;20232;-78
2021/10/28 10:11:50;;;;;;;14.10;11.93;;;11.10;99.90;;;;;;5075026;28;20219;-78
2021/10/28 10:14:18;;;;;;;14.50;11.53;;;11.00;99.90;;;;;;5076867;28;20216;-77
2021/10/28 10:16:45;;;;;;;15.17;11.77;;;11.00;99.90;;;;;;5079177;28;20280;-78
2021/10/28 10:19:14;;;;;;;16.43;14.73;;;11.10;99.90;;;;;;5081447;28;20215;-77
2021/10/28 10:21:42;;;;;;;18.97;17.23;;;11.10;99.90;;;;;;5082816;28;20233;-77
2021/10/28 10:24:18;;;;;;;18.50;16.80;;;11.20;99.90;;;;;;5070106;28;20519;-77
2021/10/28 11:05:12;;;;;;;17.53;15.77;;;11.80;99.90;;;;;;5067969;28;20664;-78
2021/10/28 11:23:00;;;;;;;18.77;16.97;;;12.10;99.90;;;;;;5058550;28;20200;-79
2021/10/28 12:25:12;;;;;;;13.83;12.43;;;13.60;99.90;;;;;;5068067;28;20202;-78
2021/10/28 12:44:48;;;;;;;14.53;13.33;;;14.10;99.90;;;;;;5078059;28;20660;-79
2021/10/28 12:47:32;;;;;;;16.27;15.07;;;14.20;99.90;;;;;;5072735;28;20284;-78
2021/10/28 13:04:17;;;;;;;22.97;21.03;;;14.50;99.90;;;;;;5072727;28;20674;-78
2021/10/28 13:07:12;;;;;;;18.90;17.30;;;14.50;99.90;;;;;;5080019;28;20194;-79
2021/10/28 13:48:23;;;;;;;16.83;14.87;;;15.00;99.90;;;;;;5072613;28;20202;-78
2021/10/28 14:21:40;;;;;;;16.90;15.70;;;15.20;99.90;;;;;;5040223;28;20195;-80
2021/10/28 14:24:34;;;;;;;16.20;15.00;;;15.20;99.90;;;;;;5068777;28;20278;-80
2021/10/28 15:28:13;;;;;;;12.60;11.80;;;14.30;99.90;;;;;;5071126;28;20555;-77
2021/10/28 15:31:01;;;;;;;13.17;12.27;;;14.30;99.90;;;;;;5069618;28;20203;-78
2021/10/28 15:34:06;;;;;;;13.20;12.20;;;14.20;99.90;;;;;;5076548;28;20198;-79
2021/10/28 15:36:39;;;;;;;13.67;12.67;;;14.10;99.90;;;;;;5077949;28;20749;-78
2021/10/28 15:39:12;;;;;;;13.80;12.80;;;14.10;99.90;;;;;;5074362;28;20218;-79
2021/10/28 15:42:04;;;;;;;13.20;12.20;;;14.00;99.90;;;;;;5071035;28;20214;-77
2021/10/28 16:23:22;;;;;;;12.60;11.70;;;11.60;99.90;;;;;;5052129;28;20195;-77
2021/10/28 16:25:49;;;;;;;12.90;12.00;;;11.40;99.90;;;;;;5090274;28;20202;-78
2021/10/28 16:28:17;;;;;;;13.30;12.20;;;11.30;99.90;;;;;;5097399;28;20686;-77
2021/10/28 16:30:45;;;;;;;12.57;11.50;;;11.20;99.90;;;;;;5083453;28;20210;-79
2021/10/28 16:33:13;;;;;;;12.23;11.33;;;11.10;99.90;;;;;;5073264;28;20614;-78
2021/10/28 16:35:40;;;;;;;12.57;11.63;;;11.00;99.90;;;;;;5092378;28;20675;-78
2021/10/28 16:38:18;;;;;;;13.37;12.27;;;10.90;99.90;;;;;;5090623;28;20622;-78
2021/10/28 16:41:23;;;;;;;13.97;12.57;;;10.80;99.90;;;;;;5079579;28;20199;-77
2021/10/28 16:43:54;;;;;;;13.47;12.33;;;10.70;99.90;;;;;;5073934;28;20195;-78
2021/10/28 16:46:41;;;;;;;;;;;;;;;;;;;;;
2021/10/28 16:49:29;;;;;;;13.60;12.50;;;10.50;99.90;;;;;;5079791;28;20210;-77
2021/10/28 16:52:06;;;;;;;13.70;12.60;;;10.50;99.90;;;;;;5083576;28;20658;-77
2021/10/28 16:54:33;;;;;;;13.50;12.27;;;10.40;99.90;;;;;;5081330;28;20217;-77
2021/10/28 16:57:00;;;;;;;13.93;12.83;;;10.20;99.90;;;;;;5076214;28;20577;-77
2021/10/28 16:59:43;;;;;;;13.73;12.73;;;10.20;99.90;;;;;;5068583;28;20226;-78
2021/10/28 17:02:14;;;;;;;14.67;13.47;;;10.10;99.90;;;;;;5082495;28;20233;-80
2021/10/28 17:04:41;;;;;;;14.53;13.33;;;10.00;99.90;;;;;;5075970;28;20614;-77
2021/10/28 17:07:08;;;;;;;15.33;14.03;;;9.90;99.90;;;;;;5058411;28;20636;-77
2021/10/28 17:09:35;;;;;;;15.10;13.80;;;9.80;99.90;;;;;;5063464;28;20230;-77
2021/10/28 17:12:02;;;;;;;16.73;15.23;;;9.70;99.90;;;;;;5059113;28;20191;-77
2021/10/28 17:14:30;;;;;;;17.63;16.03;;;9.60;99.90;;;;;;5072298;28;20217;-78
2021/10/28 17:16:57;;;;;;;16.87;15.47;;;9.60;99.90;;;;;;5059117;28;20199;-78
2021/10/28 17:19:23;;;;;;;18.93;17.03;;;9.50;99.90;;;;;;5064084;28;20227;-78
2021/10/28 17:21:50;;;;;;;19.63;17.73;;;9.50;99.90;;;;;;5063414;28;20206;-77
2021/10/28 17:24:24;;;;;;;17.83;16.23;;;9.30;99.90;;;;;;5062704;28;20183;-77
2021/10/28 17:26:52;;;;;;;19.00;17.10;;;9.30;99.90;;;;;;5065968;28;20205;-78
2021/10/28 17:29:18;;;;;;;21.10;18.00;;;9.30;99.90;;;;;;5061292;28;20215;-78
2021/10/28 17:31:47;;;;;;;20.10;18.00;;;9.10;99.90;;;;;;5068719;28;20203;-78
2021/10/28 17:34:14;;;;;;;22.63;19.77;;;9.00;99.90;;;;;;5059802;28;20961;-79
2021/10/28 17:36:41;;;;;;;20.90;18.77;;;9.00;99.90;;;;;;5069270;28;20206;-79
2021/10/28 17:39:16;;;;;;;21.10;19.00;;;9.00;99.90;;;;;;5062191;28;20272;-77
2021/10/28 17:41:43;;;;;;;22.20;20.03;;;8.90;99.90;;;;;;5057564;28;20206;-79
2021/10/28 17:44:16;;;;;;;23.07;20.50;;;8.80;99.90;;;;;;5059379;28;20199;-78
2021/10/28 17:46:43;;;;;;;23.27;20.93;;;8.70;99.90;;;;;;5075434;28;20256;-78
2021/10/28 17:49:14;;;;;;;23.90;21.57;;;8.70;99.90;;;;;;5070446;28;20280;-78
2021/10/28 17:54:37;;;;;;;25.20;21.57;;;8.50;99.90;;;;;;5055953;28;20232;-78
2021/10/28 17:57:04;;;;;;;24.17;20.80;;;8.40;99.90;;;;;;5071825;28;20726;-79
2021/10/28 17:59:31;;;;;;;23.40;20.50;;;8.40;99.90;;;;;;5061225;28;20568;-79
2021/10/28 18:01:58;;;;;;;23.80;20.10;;;8.30;99.90;;;;;;5069849;28;20202;-80
2021/10/28 18:04:26;;;;;;;21.87;19.67;;;8.30;99.90;;;;;;5057794;28;20260;-78
2021/10/28 18:06:53;;;;;;;22.77;20.37;;;8.20;99.90;;;;;;5062130;28;20248;-78
2021/10/28 18:09:23;;;;;;;21.87;19.47;;;8.20;99.90;;;;;;5061090;28;20230;-79
2021/10/28 18:11:51;;;;;;;21.50;19.00;;;8.10;99.90;;;;;;5058545;28;20193;-79
2021/10/28 18:14:18;;;;;;;20.33;18.30;;;8.10;99.90;;;;;;5055472;28;20210;-79
2021/10/28 18:16:46;;;;;;;19.53;17.57;;;8.10;99.90;;;;;;5057184;28;20249;-79
2021/10/28 18:19:13;;;;;;;20.73;18.47;;;8.00;99.90;;;;;;5052223;28;20213;-78
2021/10/28 18:21:47;;;;;;;20.10;18.23;;;8.00;99.90;;;;;;5054667;28;20647;-81
2021/10/28 18:24:51;;;;;;;19.77;17.23;;;8.00;99.90;;;;;;5058476;28;20201;-78
2021/10/28 18:27:37;;;;;;;21.30;19.00;;;8.00;99.90;;;;;;5058374;28;20206;-79
2021/10/28 18:30:09;;;;;;;20.43;18.40;;;7.90;99.90;;;;;;5070413;28;20606;-78
2021/10/28 18:32:40;;;;;;;20.37;18.27;;;7.80;99.90;;;;;;5062107;28;20666;-79
2021/10/28 18:35:22;;;;;;;20.60;18.60;;;7.80;99.90;;;;;;5060442;28;20222;-79
2021/10/28 18:37:56;;;;;;;22.10;18.53;;;7.80;99.90;;;;;;5064233;28;20296;-78
2021/10/28 18:40:24;;;;;;;21.43;19.13;;;7.70;99.90;;;;;;5053124;28;20639;-78
2021/10/28 18:42:51;;;;;;;22.17;19.97;;;7.70;99.90;;;;;;5058270;28;20257;-78
2021/10/28 18:45:18;;;;;;;20.03;17.93;;;7.70;99.90;;;;;;5056767;28;20888;-78
2021/10/28 18:47:45;;;;;;;19.17;17.37;;;7.60;99.90;;;;;;5060750;28;20208;-79
2021/10/28 18:50:12;;;;;;;19.33;17.47;;;7.60;99.90;;;;;;5058129;28;20240;-78
2021/10/28 18:52:41;;;;;;;19.07;17.17;;;7.60;99.90;;;;;;5059673;28;20247;-79
2021/10/28 18:55:10;;;;;;;20.20;18.13;;;7.60;99.90;;;;;;5063351;28;20232;-79
2021/10/28 18:57:37;;;;;;;18.93;17.03;;;7.70;99.90;;;;;;5063118;28;20185;-79
2021/10/28 19:00:06;;;;;;;18.23;16.43;;;7.70;99.90;;;;;;5062144;28;20218;-78
2021/10/28 19:02:35;;;;;;;18.07;16.37;;;7.70;99.90;;;;;;5061551;28;20209;-79
2021/10/28 19:05:02;;;;;;;18.70;16.90;;;7.60;99.90;;;;;;5060390;28;20656;-77
2021/10/28 19:07:30;;;;;;;17.57;15.80;;;7.60;99.90;;;;;;5064185;28;20194;-79
2021/10/28 19:09:57;;;;;;;18.23;16.53;;;7.60;99.90;;;;;;5065890;28;20228;-78
2021/10/28 19:12:25;;;;;;;17.17;15.63;;;7.60;99.90;;;;;;5054946;28;20201;-77
2021/10/28 19:14:54;;;;;;;17.80;16.00;;;7.60;99.90;;;;;;5062619;28;20224;-79
2021/10/28 19:17:21;;;;;;;17.27;15.67;;;7.50;99.90;;;;;;5075775;28;20199;-79
2021/10/28 19:19:48;;;;;;;16.93;15.53;;;7.50;99.90;;;;;;5076124;28;20220;-79
2021/10/28 19:22:15;;;;;;;16.93;15.53;;;7.50;99.90;;;;;;5073187;28;20199;-79
2021/10/28 19:24:42;;;;;;;17.23;15.70;;;7.50;99.90;;;;;;5075678;28;20201;-79
2021/10/28 19:27:09;;;;;;;18.40;16.80;;;7.40;99.90;;;;;;5079074;28;20211;-79
2021/10/28 19:29:46;;;;;;;18.50;16.80;;;7.40;99.90;;;;;;5070898;28;20254;-79
2021/10/28 19:32:17;;;;;;;18.00;16.40;;;7.30;99.90;;;;;;5078058;28;20199;-79
2021/10/28 19:34:44;;;;;;;19.03;17.23;;;7.30;99.90;;;;;;5087511;28;20627;-78
2021/10/28 19:37:15;;;;;;;19.60;17.67;;;7.20;99.90;;;;;;5069494;28;20289;-79
2021/10/28 19:45:24;;;;;;;20.40;18.37;;;7.10;99.90;;;;;;5051509;28;20194;-79
2021/10/28 19:47:51;;;;;;;20.47;18.47;;;7.00;99.90;;;;;;5074580;28;20228;-79
2021/10/28 19:50:18;;;;;;;21.40;19.20;;;6.90;99.90;;;;;;5071075;28;20223;-78
2021/10/28 19:52:45;;;;;;;21.50;19.40;;;6.90;99.90;;;;;;5082413;28;20207;-79
2021/10/28 19:55:12;;;;;;;21.80;19.63;;;6.80;99.90;;;;;;5073882;28;20216;-79
2021/10/28 19:57:43;;;;;;;20.23;18.20;;;6.80;99.90;;;;;;5079281;28;20212;-79
2021/10/28 20:00:17;;;;;;;20.97;18.80;;;6.70;99.90;;;;;;5071368;28;20699;-78
2021/10/28 20:03:08;;;;;;;20.83;18.97;;;6.60;99.90;;;;;;5067225;28;20227;-79
2021/10/28 20:05:43;;;;;;;22.30;20.03;;;6.60;99.90;;;;;;5072508;28;20197;-77
2021/10/28 20:08:20;;;;;;;21.93;19.73;;;6.60;99.90;;;;;;5074944;28;20196;-79
2021/10/28 20:13:57;;;;;;;21.90;19.53;;;6.50;99.90;;;;;;5074992;28;20201;-79
2021/10/28 20:21:54;;;;;;;22.97;20.73;;;6.40;99.90;;;;;;5069477;28;20687;-79
2021/10/28 20:24:21;;;;;;;23.47;20.97;;;6.40;99.90;;;;;;5067155;28;20325;-78
2021/10/28 20:26:48;;;;;;;23.07;20.63;;;6.30;99.90;;;;;;5085611;28;20202;-79
2021/10/28 20:29:15;;;;;;;23.63;21.20;;;6.30;99.90;;;;;;5068817;28;20261;-78
2021/10/28 20:31:43;;;;;;;22.93;20.53;;;6.20;99.90;;;;;;5084318;28;20238;-79
2021/10/28 20:34:16;;;;;;;22.70;20.30;;;6.20;99.90;;;;;;5070498;28;20200;-78
2021/10/28 20:39:27;;;;;;;23.73;21.40;;;6.10;99.90;;;;;;5070310;28;20230;-79
2021/10/28 20:41:55;;;;;;;22.67;20.47;;;6.10;99.90;;;;;;5081856;28;20195;-78
2021/10/28 20:44:22;;;;;;;23.30;20.80;;;6.00;99.90;;;;;;5078750;28;20208;-78
2021/10/28 20:46:51;;;;;;;24.37;22.10;;;6.00;99.90;;;;;;5083659;28;20687;-78
2021/10/28 20:49:18;;;;;;;24.03;21.80;;;5.90;99.90;;;;;;5080900;28;20221;-79
2021/10/28 20:51:44;;;;;;;23.63;21.27;;;5.90;99.90;;;;;;5079358;28;20210;-78
2021/10/28 20:54:11;;;;;;;23.57;21.17;;;5.80;99.90;;;;;;5082216;28;20630;-79
2021/10/28 20:56:38;;;;;;;23.60;21.13;;;5.80;99.90;;;;;;5084788;28;20218;-79
2021/10/28 20:59:05;;;;;;;23.83;21.63;;;5.80;99.90;;;;;;5082997;28;20703;-79
2021/10/28 21:01:32;;;;;;;23.70;21.40;;;5.80;99.90;;;;;;5075074;28;20289;-78